sensor_id;sensor_type;location;lat;lon;timestamp;P1;durP1;ratioP1;P2;durP2;ratioP2
14251;SDS011;7210;51.502;10.722;2023-09-07T00:02:22;7.80;;;7.10;;
14251;SDS011;7210;51.502;10.722;2023-09-07T00:08:58;6.80;;;6.07;;
14251;SDS011;7210;51.502;10.722;2023-09-07T00:15:35;6.40;;;5.80;;
14251;SDS011;7210;51.502;10.722;2023-09-07T00:22:09;7.00;;;6.40;;
14251;SDS011;7210;51.502;10.722;2023-09-07T00:28:44;9.30;;;7.27;;
14251;SDS011;7210;51.502;10.722;2023-09-07T00:35:37;11.63;;;7.03;;
14251;SDS011;7210;51.502;10.722;2023-09-07T00:42:11;8.20;;;6.43;;
14251;SDS011;7210;51.502;10.722;2023-09-07T00:48:53;7.07;;;6.47;;
14251;SDS011;7210;51.502;10.722;2023-09-07T00:59:35;7.80;;;7.10;;
14251;SDS011;7210;51.502;10.722;2023-09-07T01:06:12;9.50;;;6.40;;
14251;SDS011;7210;51.502;10.722;2023-09-07T01:12:50;7.33;;;6.53;;
14251;SDS011;7210;51.502;10.722;2023-09-07T01:19:23;6.70;;;5.23;;
14251;SDS011;7210;51.502;10.722;2023-09-07T01:25:59;5.50;;;5.03;;
14251;SDS011;7210;51.502;10.722;2023-09-07T01:32:33;5.10;;;4.60;;
14251;SDS011;7210;51.502;10.722;2023-09-07T01:39:08;6.30;;;5.70;;
14251;SDS011;7210;51.502;10.722;2023-09-07T01:45:43;6.23;;;5.73;;
14251;SDS011;7210;51.502;10.722;2023-09-07T01:52:17;5.17;;;4.67;;
14251;SDS011;7210;51.502;10.722;2023-09-07T02:02:59;5.57;;;4.70;;
14251;SDS011;7210;51.502;10.722;2023-09-07T02:09:32;6.53;;;5.27;;
14251;SDS011;7210;51.502;10.722;2023-09-07T02:16:06;5.30;;;4.90;;
14251;SDS011;7210;51.502;10.722;2023-09-07T02:22:41;5.03;;;4.53;;
14251;SDS011;7210;51.502;10.722;2023-09-07T02:29:15;7.17;;;6.47;;
14251;SDS011;7210;51.502;10.722;2023-09-07T02:35:49;6.37;;;5.77;;
14251;SDS011;7210;51.502;10.722;2023-09-07T02:42:24;7.00;;;6.40;;
14251;SDS011;7210;51.502;10.722;2023-09-07T02:49:05;6.23;;;5.73;;
14251;SDS011;7210;51.502;10.722;2023-09-07T02:55:58;7.20;;;6.50;;
14251;SDS011;7210;51.502;10.722;2023-09-07T03:02:36;5.73;;;5.23;;
14251;SDS011;7210;51.502;10.722;2023-09-07T03:09:10;6.20;;;5.67;;
14251;SDS011;7210;51.502;10.722;2023-09-07T03:15:44;5.47;;;5.07;;
14251;SDS011;7210;51.502;10.722;2023-09-07T03:22:21;7.20;;;6.53;;
14251;SDS011;7210;51.502;10.722;2023-09-07T03:28:56;6.40;;;5.90;;
14251;SDS011;7210;51.502;10.722;2023-09-07T03:35:30;6.50;;;6.00;;
14251;SDS011;7210;51.502;10.722;2023-09-07T03:42:06;7.87;;;6.40;;
14251;SDS011;7210;51.502;10.722;2023-09-07T03:48:40;7.67;;;6.77;;
14251;SDS011;7210;51.502;10.722;2023-09-07T04:02:45;8.67;;;6.90;;
14251;SDS011;7210;51.502;10.722;2023-09-07T04:09:20;7.27;;;6.37;;
14251;SDS011;7210;51.502;10.722;2023-09-07T04:15:54;7.13;;;6.20;;
14251;SDS011;7210;51.502;10.722;2023-09-07T04:22:29;6.97;;;6.27;;
14251;SDS011;7210;51.502;10.722;2023-09-07T04:29:03;7.53;;;6.77;;
14251;SDS011;7210;51.502;10.722;2023-09-07T04:35:40;7.20;;;6.50;;
14251;SDS011;7210;51.502;10.722;2023-09-07T04:42:15;7.07;;;6.30;;
14251;SDS011;7210;51.502;10.722;2023-09-07T04:48:49;7.23;;;6.00;;
14251;SDS011;7210;51.502;10.722;2023-09-07T04:55:24;7.33;;;6.60;;
14251;SDS011;7210;51.502;10.722;2023-09-07T04:57:53;6.20;;;5.70;;
14251;SDS011;7210;51.502;10.722;2023-09-07T05:00:20;5.97;;;5.47;;
14251;SDS011;7210;51.502;10.722;2023-09-07T05:06:54;4.53;;;4.13;;
14251;SDS011;7210;51.502;10.722;2023-09-07T05:13:30;4.57;;;3.90;;
14251;SDS011;7210;51.502;10.722;2023-09-07T05:20:07;5.97;;;5.03;;
14251;SDS011;7210;51.502;10.722;2023-09-07T05:30:50;7.07;;;5.90;;
14251;SDS011;7210;51.502;10.722;2023-09-07T05:37:27;9.37;;;6.43;;
14251;SDS011;7210;51.502;10.722;2023-09-07T05:43:34;6.40;;;5.80;;
14251;SDS011;7210;51.502;10.722;2023-09-07T05:50:10;7.10;;;6.40;;
14251;SDS011;7210;51.502;10.722;2023-09-07T05:56:44;6.13;;;5.63;;
14251;SDS011;7210;51.502;10.722;2023-09-07T06:03:18;6.10;;;5.60;;
14251;SDS011;7210;51.502;10.722;2023-09-07T06:38:04;14.47;;;10.97;;
14251;SDS011;7210;51.502;10.722;2023-09-07T06:44:52;12.97;;;11.77;;
14251;SDS011;7210;51.502;10.722;2023-09-07T06:50:20;14.00;;;12.53;;
14251;SDS011;7210;51.502;10.722;2023-09-07T06:55:56;11.03;;;10.00;;
14251;SDS011;7210;51.502;10.722;2023-09-07T06:58:25;12.70;;;11.50;;
14251;SDS011;7210;51.502;10.722;2023-09-07T07:00:56;10.53;;;9.53;;
14251;SDS011;7210;51.502;10.722;2023-09-07T07:03:42;8.97;;;8.17;;
14251;SDS011;7210;51.502;10.722;2023-09-07T07:06:16;11.07;;;10.00;;
14251;SDS011;7210;51.502;10.722;2023-09-07T07:08:58;10.27;;;9.33;;
14251;SDS011;7210;51.502;10.722;2023-09-07T07:11:28;11.23;;;10.10;;
14251;SDS011;7210;51.502;10.722;2023-09-07T07:17:28;11.67;;;10.50;;
14251;SDS011;7210;51.502;10.722;2023-09-07T07:20:00;13.33;;;11.97;;
14251;SDS011;7210;51.502;10.722;2023-09-07T07:22:28;14.27;;;12.60;;
14251;SDS011;7210;51.502;10.722;2023-09-07T07:24:58;13.07;;;11.73;;
14251;SDS011;7210;51.502;10.722;2023-09-07T07:27:40;14.47;;;13.10;;
14251;SDS011;7210;51.502;10.722;2023-09-07T07:30:10;13.87;;;12.57;;
14251;SDS011;7210;51.502;10.722;2023-09-07T07:32:39;13.43;;;12.33;;
14251;SDS011;7210;51.502;10.722;2023-09-07T07:35:08;14.07;;;12.70;;
14251;SDS011;7210;51.502;10.722;2023-09-07T07:37:40;13.63;;;12.20;;
14251;SDS011;7210;51.502;10.722;2023-09-07T07:40:08;13.47;;;12.27;;
14251;SDS011;7210;51.502;10.722;2023-09-07T07:42:37;13.27;;;12.13;;
14251;SDS011;7210;51.502;10.722;2023-09-07T07:48:10;15.13;;;13.53;;
14251;SDS011;7210;51.502;10.722;2023-09-07T07:50:48;13.47;;;12.23;;
14251;SDS011;7210;51.502;10.722;2023-09-07T07:53:22;13.20;;;11.73;;
14251;SDS011;7210;51.502;10.722;2023-09-07T07:56:04;13.27;;;12.07;;
14251;SDS011;7210;51.502;10.722;2023-09-07T07:58:34;14.27;;;12.87;;
14251;SDS011;7210;51.502;10.722;2023-09-07T08:04:10;14.57;;;12.97;;
14251;SDS011;7210;51.502;10.722;2023-09-07T08:06:42;15.00;;;13.60;;
14251;SDS011;7210;51.502;10.722;2023-09-07T08:09:09;16.67;;;13.73;;
14251;SDS011;7210;51.502;10.722;2023-09-07T08:11:52;14.80;;;13.40;;
14251;SDS011;7210;51.502;10.722;2023-09-07T08:21:15;14.40;;;12.90;;
14251;SDS011;7210;51.502;10.722;2023-09-07T08:27:51;14.47;;;12.97;;
14251;SDS011;7210;51.502;10.722;2023-09-07T08:34:29;13.00;;;11.57;;
14251;SDS011;7210;51.502;10.722;2023-09-07T08:41:03;13.07;;;11.77;;
14251;SDS011;7210;51.502;10.722;2023-09-07T08:47:39;13.70;;;12.47;;
14251;SDS011;7210;51.502;10.722;2023-09-07T08:54:15;12.43;;;11.13;;
14251;SDS011;7210;51.502;10.722;2023-09-07T08:59:48;12.10;;;10.90;;
14251;SDS011;7210;51.502;10.722;2023-09-07T09:06:30;11.40;;;9.97;;
14251;SDS011;7210;51.502;10.722;2023-09-07T09:13:04;8.70;;;7.90;;
14251;SDS011;7210;51.502;10.722;2023-09-07T09:19:38;8.93;;;7.63;;
14251;SDS011;7210;51.502;10.722;2023-09-07T09:26:14;7.20;;;6.50;;
14251;SDS011;7210;51.502;10.722;2023-09-07T09:32:48;7.17;;;6.33;;
14251;SDS011;7210;51.502;10.722;2023-09-07T09:39:22;6.83;;;6.23;;
14251;SDS011;7210;51.502;10.722;2023-09-07T09:45:59;9.13;;;6.33;;
14251;SDS011;7210;51.502;10.722;2023-09-07T09:52:34;8.10;;;6.50;;
14251;SDS011;7210;51.502;10.722;2023-09-07T10:03:17;7.47;;;6.03;;
14251;SDS011;7210;51.502;10.722;2023-09-07T10:09:58;5.80;;;5.30;;
14251;SDS011;7210;51.502;10.722;2023-09-07T10:16:41;8.38;;;5.53;;
14251;SDS011;7210;51.502;10.722;2023-09-07T10:23:17;6.20;;;5.68;;
14251;SDS011;7210;51.502;10.722;2023-09-07T10:29:51;6.72;;;5.43;;
14251;SDS011;7210;51.502;10.722;2023-09-07T10:36:45;5.78;;;5.28;;
14251;SDS011;7210;51.502;10.722;2023-09-07T10:43:20;5.10;;;4.47;;
14251;SDS011;7210;51.502;10.722;2023-09-07T10:49:53;6.22;;;4.93;;
14251;SDS011;7210;51.502;10.722;2023-09-07T10:56:31;8.00;;;4.93;;
14251;SDS011;7210;51.502;10.722;2023-09-07T11:03:09;5.43;;;4.57;;
14251;SDS011;7210;51.502;10.722;2023-09-07T11:09:44;4.82;;;3.90;;
14251;SDS011;7210;51.502;10.722;2023-09-07T11:16:37;6.93;;;4.00;;
14251;SDS011;7210;51.502;10.722;2023-09-07T11:23:17;4.65;;;4.25;;
14251;SDS011;7210;51.502;10.722;2023-09-07T11:29:52;5.95;;;4.30;;
14251;SDS011;7210;51.502;10.722;2023-09-07T11:40:33;5.80;;;4.22;;
14251;SDS011;7210;51.502;10.722;2023-09-07T11:47:06;4.75;;;4.25;;
14251;SDS011;7210;51.502;10.722;2023-09-07T11:53:40;6.05;;;4.10;;
14251;SDS011;7210;51.502;10.722;2023-09-07T11:59:46;4.80;;;4.35;;
14251;SDS011;7210;51.502;10.722;2023-09-07T12:06:20;5.47;;;4.63;;
14251;SDS011;7210;51.502;10.722;2023-09-07T12:12:55;5.85;;;4.28;;
14251;SDS011;7210;51.502;10.722;2023-09-07T12:19:30;4.88;;;4.30;;
14251;SDS011;7210;51.502;10.722;2023-09-07T12:26:05;4.90;;;4.00;;
14251;SDS011;7210;51.502;10.722;2023-09-07T12:32:39;6.10;;;4.43;;
14251;SDS011;7210;51.502;10.722;2023-09-07T12:39:15;6.15;;;5.15;;
14251;SDS011;7210;51.502;10.722;2023-09-07T12:45:49;5.72;;;3.92;;
14251;SDS011;7210;51.502;10.722;2023-09-07T12:52:23;6.25;;;4.00;;
14251;SDS011;7210;51.502;10.722;2023-09-07T13:03:06;5.03;;;4.00;;
14251;SDS011;7210;51.502;10.722;2023-09-07T13:09:42;5.97;;;4.43;;
14251;SDS011;7210;51.502;10.722;2023-09-07T13:16:16;4.57;;;3.97;;
14251;SDS011;7210;51.502;10.722;2023-09-07T13:22:52;5.68;;;4.05;;
14251;SDS011;7210;51.502;10.722;2023-09-07T13:29:26;5.50;;;3.95;;
14251;SDS011;7210;51.502;10.722;2023-09-07T13:35:59;6.25;;;3.97;;
14251;SDS011;7210;51.502;10.722;2023-09-07T13:42:35;4.40;;;3.53;;
14251;SDS011;7210;51.502;10.722;2023-09-07T13:49:11;7.18;;;3.80;;
14251;SDS011;7210;51.502;10.722;2023-09-07T13:55:45;3.80;;;3.35;;
14251;SDS011;7210;51.502;10.722;2023-09-07T13:58:15;5.10;;;3.90;;
14251;SDS011;7210;51.502;10.722;2023-09-07T14:00:42;6.75;;;3.88;;
14251;SDS011;7210;51.502;10.722;2023-09-07T14:07:18;4.50;;;4.03;;
14251;SDS011;7210;51.502;10.722;2023-09-07T14:13:53;5.28;;;4.30;;
14251;SDS011;7210;51.502;10.722;2023-09-07T14:20:27;5.05;;;4.05;;
14251;SDS011;7210;51.502;10.722;2023-09-07T14:31:09;5.25;;;3.90;;
14251;SDS011;7210;51.502;10.722;2023-09-07T14:33:46;4.00;;;3.70;;
14251;SDS011;7210;51.502;10.722;2023-09-07T14:40:20;3.70;;;3.40;;
14251;SDS011;7210;51.502;10.722;2023-09-07T14:46:57;5.28;;;4.20;;
14251;SDS011;7210;51.502;10.722;2023-09-07T14:59:44;4.00;;;3.60;;
14251;SDS011;7210;51.502;10.722;2023-09-07T15:13:33;4.75;;;3.80;;
14251;SDS011;7210;51.502;10.722;2023-09-07T15:20:08;4.03;;;3.63;;
14251;SDS011;7210;51.502;10.722;2023-09-07T15:26:44;4.85;;;3.78;;
14251;SDS011;7210;51.502;10.722;2023-09-07T15:33:17;3.75;;;3.35;;
14251;SDS011;7210;51.502;10.722;2023-09-07T15:48:07;3.75;;;3.42;;
14251;SDS011;7210;51.502;10.722;2023-09-07T15:57:25;4.03;;;3.50;;
14251;SDS011;7210;51.502;10.722;2023-09-07T16:07:39;4.05;;;3.72;;
14251;SDS011;7210;51.502;10.722;2023-09-07T16:14:12;3.70;;;3.40;;
14251;SDS011;7210;51.502;10.722;2023-09-07T16:20:46;5.45;;;4.00;;
14251;SDS011;7210;51.502;10.722;2023-09-07T16:31:29;6.53;;;3.90;;
14251;SDS011;7210;51.502;10.722;2023-09-07T16:33:58;4.53;;;4.13;;
14251;SDS011;7210;51.502;10.722;2023-09-07T16:40:40;4.55;;;3.65;;
14251;SDS011;7210;51.502;10.722;2023-09-07T16:55:30;4.90;;;4.28;;
14251;SDS011;7210;51.502;10.722;2023-09-07T16:57:57;4.75;;;4.00;;
14251;SDS011;7210;51.502;10.722;2023-09-07T17:00:25;4.53;;;4.03;;
14251;SDS011;7210;51.502;10.722;2023-09-07T17:02:52;3.75;;;3.42;;
14251;SDS011;7210;51.502;10.722;2023-09-07T17:09:25;4.53;;;4.13;;
14251;SDS011;7210;51.502;10.722;2023-09-07T17:19:27;5.05;;;3.92;;
14251;SDS011;7210;51.502;10.722;2023-09-07T17:37:24;6.50;;;4.40;;
14251;SDS011;7210;51.502;10.722;2023-09-07T17:43:57;8.43;;;4.75;;
14251;SDS011;7210;51.502;10.722;2023-09-07T17:50:31;5.07;;;4.10;;
14251;SDS011;7210;51.502;10.722;2023-09-07T17:57:07;6.53;;;4.53;;
14251;SDS011;7210;51.502;10.722;2023-09-07T18:03:40;7.33;;;4.33;;
14251;SDS011;7210;51.502;10.722;2023-09-07T18:10:14;4.73;;;4.23;;
14251;SDS011;7210;51.502;10.722;2023-09-07T18:16:50;5.20;;;4.60;;
14251;SDS011;7210;51.502;10.722;2023-09-07T18:23:23;4.77;;;4.37;;
14251;SDS011;7210;51.502;10.722;2023-09-07T18:29:58;6.07;;;4.10;;
14251;SDS011;7210;51.502;10.722;2023-09-07T18:36:33;4.90;;;4.27;;
14251;SDS011;7210;51.502;10.722;2023-09-07T18:43:08;5.13;;;4.47;;
14251;SDS011;7210;51.502;10.722;2023-09-07T18:49:42;9.63;;;4.57;;
14251;SDS011;7210;51.502;10.722;2023-09-07T18:56:19;7.57;;;4.97;;
14251;SDS011;7210;51.502;10.722;2023-09-07T19:02:52;6.60;;;4.73;;
14251;SDS011;7210;51.502;10.722;2023-09-07T19:09:26;6.40;;;4.83;;
14251;SDS011;7210;51.502;10.722;2023-09-07T19:16:02;7.33;;;5.23;;
14251;SDS011;7210;51.502;10.722;2023-09-07T19:22:36;5.97;;;5.47;;
14251;SDS011;7210;51.502;10.722;2023-09-07T19:29:16;6.57;;;5.97;;
14251;SDS011;7210;51.502;10.722;2023-09-07T19:35:52;9.53;;;6.97;;
14251;SDS011;7210;51.502;10.722;2023-09-07T19:42:25;9.60;;;6.83;;
14251;SDS011;7210;51.502;10.722;2023-09-07T19:48:59;8.33;;;7.40;;
14251;SDS011;7210;51.502;10.722;2023-09-07T19:55:35;6.80;;;5.90;;
14251;SDS011;7210;51.502;10.722;2023-09-07T19:58:02;8.13;;;6.40;;
14251;SDS011;7210;51.502;10.722;2023-09-07T20:00:30;6.87;;;6.27;;
14251;SDS011;7210;51.502;10.722;2023-09-07T20:07:04;6.77;;;5.87;;
14251;SDS011;7210;51.502;10.722;2023-09-07T20:13:52;6.67;;;5.90;;
14251;SDS011;7210;51.502;10.722;2023-09-07T20:20:25;6.33;;;5.73;;
14251;SDS011;7210;51.502;10.722;2023-09-07T20:26:59;7.27;;;6.17;;
14251;SDS011;7210;51.502;10.722;2023-09-07T20:33:35;9.63;;;7.00;;
14251;SDS011;7210;51.502;10.722;2023-09-07T20:40:08;7.63;;;6.93;;
14251;SDS011;7210;51.502;10.722;2023-09-07T20:46:43;8.93;;;7.47;;
14251;SDS011;7210;51.502;10.722;2023-09-07T20:53:20;8.23;;;6.83;;
14251;SDS011;7210;51.502;10.722;2023-09-07T20:59:53;10.03;;;7.67;;
14251;SDS011;7210;51.502;10.722;2023-09-07T21:06:27;7.73;;;7.00;;
14251;SDS011;7210;51.502;10.722;2023-09-07T21:13:03;8.23;;;7.43;;
14251;SDS011;7210;51.502;10.722;2023-09-07T21:19:37;8.10;;;7.30;;
14251;SDS011;7210;51.502;10.722;2023-09-07T21:26:11;8.40;;;6.73;;
14251;SDS011;7210;51.502;10.722;2023-09-07T21:32:47;8.27;;;7.47;;
14251;SDS011;7210;51.502;10.722;2023-09-07T21:39:20;8.67;;;7.77;;
14251;SDS011;7210;51.502;10.722;2023-09-07T21:45:54;8.40;;;7.57;;
14251;SDS011;7210;51.502;10.722;2023-09-07T21:52:30;8.53;;;7.27;;
14251;SDS011;7210;51.502;10.722;2023-09-07T22:03:09;8.67;;;6.80;;
14251;SDS011;7210;51.502;10.722;2023-09-07T22:09:44;9.43;;;6.80;;
14251;SDS011;7210;51.502;10.722;2023-09-07T22:16:18;6.90;;;6.20;;
14251;SDS011;7210;51.502;10.722;2023-09-07T22:22:52;7.90;;;6.40;;
14251;SDS011;7210;51.502;10.722;2023-09-07T22:29:28;7.03;;;6.33;;
14251;SDS011;7210;51.502;10.722;2023-09-07T22:36:02;7.10;;;6.40;;
14251;SDS011;7210;51.502;10.722;2023-09-07T22:42:36;7.10;;;6.40;;
14251;SDS011;7210;51.502;10.722;2023-09-07T22:49:12;8.20;;;6.70;;
14251;SDS011;7210;51.502;10.722;2023-09-07T22:55:46;10.27;;;7.33;;
14251;SDS011;7210;51.502;10.722;2023-09-07T22:58:14;10.47;;;7.63;;
14251;SDS011;7210;51.502;10.722;2023-09-07T23:00:45;8.20;;;7.30;;
14251;SDS011;7210;51.502;10.722;2023-09-07T23:07:21;7.77;;;6.67;;
14251;SDS011;7210;51.502;10.722;2023-09-07T23:13:55;7.27;;;6.57;;
14251;SDS011;7210;51.502;10.722;2023-09-07T23:20:29;6.93;;;6.33;;
14251;SDS011;7210;51.502;10.722;2023-09-07T23:27:05;6.70;;;6.10;;
14251;SDS011;7210;51.502;10.722;2023-09-07T23:33:38;6.50;;;5.83;;
14251;SDS011;7210;51.502;10.722;2023-09-07T23:40:12;8.13;;;7.30;;
14251;SDS011;7210;51.502;10.722;2023-09-07T23:46:48;7.80;;;7.10;;
14251;SDS011;7210;51.502;10.722;2023-09-07T23:53:21;9.90;;;8.20;;
14251;SDS011;7210;51.502;10.722;2023-09-07T23:59:55;7.60;;;6.90;;
